createdAt,value
2022-09-15T00:00:12.733Z,539.22
2022-09-15T00:03:00.674Z,543.65
2022-09-15T00:05:53.278Z,509.02
2022-09-15T00:08:41.355Z,530.67
2022-09-15T00:11:31.431Z,535.90
2022-09-15T00:14:20.901Z,530.80
2022-09-15T00:17:08.900Z,529.80
2022-09-15T00:19:58.359Z,549.38
2022-09-15T00:22:46.305Z,534.08
2022-09-15T00:25:34.233Z,550.85
2022-09-15T00:28:23.758Z,550.60
2022-09-15T00:31:15.478Z,542.05
2022-09-15T00:34:04.004Z,515.53
2022-09-15T00:36:51.932Z,515.67
2022-09-15T00:39:39.872Z,494.05
2022-09-15T00:42:27.759Z,530.55
2022-09-15T00:45:18.189Z,505.27
2022-09-15T00:48:11.084Z,509.52
2022-09-15T00:51:00.937Z,515.53
2022-09-15T00:53:50.281Z,532.70
2022-09-15T00:56:41.709Z,527.17
2022-09-15T00:59:32.594Z,509.15
2022-09-15T01:02:23.864Z,529.55
2022-09-15T01:05:16.463Z,507.83
2022-09-15T01:08:08.021Z,522.78
2022-09-15T01:10:56.840Z,505.05
2022-09-15T01:13:45.446Z,507.92
2022-09-15T01:16:48.588Z,504.80
2022-09-15T01:20:01.750Z,488.80
2022-09-15T01:23:06.687Z,515.55
2022-09-15T01:26:18.845Z,474.85
2022-09-15T01:29:24.567Z,478.67
2022-09-15T01:32:39.001Z,460.63
2022-09-15T01:35:34.851Z,465.08
2022-09-15T01:38:31.340Z,473.60
2022-09-15T01:41:25.305Z,484.58
2022-09-15T01:44:16.512Z,509.00
2022-09-15T01:47:08.962Z,485.00
2022-09-15T01:50:03.728Z,508.67
2022-09-15T01:52:54.640Z,475.48
2022-09-15T01:55:47.614Z,472.17
2022-09-15T01:58:37.903Z,502.88
2022-09-15T02:01:32.319Z,501.25
2022-09-15T02:04:29.597Z,472.58
2022-09-15T02:07:27.224Z,481.65
2022-09-15T02:10:22.960Z,489.52
2022-09-15T02:13:16.888Z,494.90
2022-09-15T02:16:10.532Z,442.73
2022-09-15T02:19:10.120Z,469.13
2022-09-15T02:22:06.039Z,475.98
2022-09-15T02:24:58.846Z,474.40
2022-09-15T02:27:50.342Z,487.23
2022-09-15T02:30:41.919Z,471.23
2022-09-15T02:33:34.550Z,472.45
2022-09-15T02:36:22.929Z,470.25
2022-09-15T02:39:15.757Z,467.55
2022-09-15T02:42:04.606Z,470.92
2022-09-15T02:44:52.925Z,480.60
2022-09-15T02:47:40.840Z,485.48
2022-09-15T02:50:28.818Z,496.83
2022-09-15T02:53:16.738Z,481.70
2022-09-15T02:56:07.013Z,462.70
2022-09-15T02:58:54.899Z,489.45
2022-09-15T03:01:42.928Z,480.38
2022-09-15T03:04:30.842Z,488.77
2022-09-15T03:07:19.697Z,461.98
2022-09-15T03:10:09.740Z,508.52
2022-09-15T03:12:59.113Z,481.75
2022-09-15T03:15:47.189Z,484.08
2022-09-15T03:18:35.233Z,484.02
2022-09-15T03:21:23.804Z,487.75
2022-09-15T03:24:11.815Z,513.55
2022-09-15T03:26:59.736Z,497.73
2022-09-15T03:29:49.126Z,506.48
2022-09-15T03:32:37.179Z,512.53
2022-09-15T03:35:25.185Z,468.58
2022-09-15T03:38:13.132Z,509.63
2022-09-15T03:41:02.821Z,496.20
2022-09-15T03:43:50.768Z,482.05
2022-09-15T03:46:40.049Z,515.13
2022-09-15T03:49:27.942Z,484.45
2022-09-15T03:52:15.852Z,490.13
2022-09-15T03:55:03.821Z,473.75
2022-09-15T03:57:52.589Z,446.40
2022-09-15T04:00:41.253Z,475.65
2022-09-15T04:03:31.721Z,481.98
2022-09-15T04:06:20.238Z,476.65
2022-09-15T04:09:08.525Z,493.08
2022-09-15T04:11:56.794Z,501.08
2022-09-15T04:14:44.894Z,501.98
2022-09-15T04:17:33.207Z,472.15
2022-09-15T04:20:22.502Z,455.45
2022-09-15T04:23:10.432Z,491.67
2022-09-15T04:25:59.474Z,476.02
2022-09-15T04:28:47.422Z,461.20
2022-09-15T04:31:35.463Z,478.15
2022-09-15T04:34:24.458Z,456.00
2022-09-15T04:37:13.774Z,462.25
2022-09-15T04:40:02.309Z,467.27
2022-09-15T04:42:50.289Z,478.80
2022-09-15T04:45:38.200Z,464.92
2022-09-15T04:48:26.575Z,484.48
2022-09-15T04:51:18.042Z,466.25
2022-09-15T04:54:07.808Z,462.20
2022-09-15T04:56:55.751Z,482.88
2022-09-15T04:59:43.667Z,471.55
2022-09-15T05:02:31.860Z,474.70
2022-09-15T05:05:20.311Z,458.75
2022-09-15T05:08:08.771Z,425.30
2022-09-15T05:11:01.352Z,456.75
2022-09-15T05:13:49.688Z,473.63
2022-09-15T05:16:37.816Z,472.55
2022-09-15T05:19:25.892Z,442.02
2022-09-15T05:22:13.829Z,471.77
2022-09-15T05:25:01.740Z,439.48
2022-09-15T05:27:51.016Z,484.58
2022-09-15T05:30:44.244Z,433.55
2022-09-15T05:33:32.496Z,484.77
2022-09-15T05:36:23.769Z,433.35
2022-09-15T05:39:11.685Z,426.05
2022-09-15T05:41:59.704Z,434.15
2022-09-15T05:44:48.972Z,437.90
2022-09-15T05:47:36.984Z,447.92
2022-09-15T05:50:24.876Z,448.35
2022-09-15T05:53:12.782Z,444.60
2022-09-15T05:56:03.007Z,472.90
2022-09-15T05:58:51.071Z,460.33
2022-09-15T06:01:40.461Z,448.75
2022-09-15T06:04:28.507Z,452.17
2022-09-15T06:07:17.410Z,450.00
2022-09-15T06:10:06.473Z,477.35
2022-09-15T06:12:54.984Z,438.80
2022-09-15T06:15:43.375Z,451.52
2022-09-15T06:18:33.853Z,437.38
2022-09-15T06:21:23.401Z,451.35
2022-09-15T06:24:12.940Z,435.42
2022-09-15T06:27:00.936Z,423.65
2022-09-15T06:29:49.310Z,443.58
2022-09-15T06:32:37.484Z,426.38
2022-09-15T06:35:26.791Z,420.45
2022-09-15T06:38:14.754Z,438.90
2022-09-15T06:41:03.072Z,430.80
2022-09-15T06:43:51.403Z,435.33
2022-09-15T06:46:39.706Z,435.95
2022-09-15T06:49:27.662Z,429.00
2022-09-15T06:52:16.930Z,432.77
2022-09-15T06:55:05.530Z,418.58
2022-09-15T06:57:53.452Z,434.42
2022-09-15T07:00:41.404Z,395.25
2022-09-15T07:03:29.467Z,413.98
2022-09-15T07:06:18.170Z,417.23
2022-09-15T07:09:07.748Z,444.55
2022-09-15T07:11:55.627Z,444.20
2022-09-15T07:14:43.850Z,423.83
2022-09-15T07:17:31.739Z,407.48
2022-09-15T07:20:19.623Z,448.27
2022-09-15T07:23:07.547Z,436.52
2022-09-15T07:26:06.822Z,421.25
2022-09-15T07:28:57.260Z,431.40
2022-09-15T07:31:45.201Z,433.98
2022-09-15T07:34:33.108Z,436.33
2022-09-15T07:37:21.060Z,454.90
2022-09-15T07:40:10.959Z,454.38
2022-09-15T07:43:00.274Z,440.90
2022-09-15T07:45:48.191Z,443.02
2022-09-15T07:48:36.116Z,466.73
2022-09-15T07:51:24.869Z,459.95
2022-09-15T07:54:13.057Z,472.27
2022-09-15T07:57:00.950Z,468.17
2022-09-15T07:59:50.380Z,464.02
2022-09-15T08:02:38.286Z,486.63
2022-09-15T08:05:28.493Z,461.40
2022-09-15T08:08:16.436Z,474.60
2022-09-15T08:11:07.843Z,474.63
2022-09-15T08:13:55.832Z,475.17
2022-09-15T08:16:45.066Z,481.27
2022-09-15T08:19:35.186Z,480.52
2022-09-15T08:22:23.125Z,456.52
2022-09-15T08:25:11.022Z,469.70
2022-09-15T08:28:00.078Z,425.90
2022-09-15T08:30:48.161Z,438.58
2022-09-15T08:33:39.833Z,442.80
2022-09-15T08:36:31.304Z,453.98
2022-09-15T08:39:19.225Z,460.38
2022-09-15T08:42:07.531Z,452.10
2022-09-15T08:45:00.651Z,463.40
2022-09-15T08:47:55.733Z,461.15
2022-09-15T08:50:50.305Z,440.63
2022-09-15T08:53:45.349Z,445.90
2022-09-15T08:56:33.975Z,465.70
2022-09-15T08:59:22.309Z,481.70
2022-09-15T09:02:45.257Z,474.10
2022-09-15T09:05:54.185Z,479.13
2022-09-15T09:08:57.072Z,453.10
2022-09-15T09:11:59.764Z,466.35
2022-09-15T09:15:03.854Z,466.95
2022-09-15T09:18:14.256Z,469.80
2022-09-15T09:21:10.435Z,456.58
2022-09-15T09:24:06.137Z,445.33
2022-09-15T09:26:56.545Z,407.45
2022-09-15T09:29:49.397Z,425.02
2022-09-15T09:32:43.744Z,411.85
2022-09-15T09:35:37.538Z,404.85
2022-09-15T09:38:28.215Z,433.85
2022-09-15T09:41:19.743Z,431.38
2022-09-15T09:44:13.070Z,416.90
2022-09-15T09:47:01.877Z,443.85
2022-09-15T09:49:50.848Z,425.05
2022-09-15T09:52:40.262Z,428.27
2022-09-15T09:55:29.222Z,421.17
2022-09-15T09:58:22.434Z,425.45
2022-09-15T10:01:11.970Z,436.15
2022-09-15T10:04:13.999Z,428.52
2022-09-15T10:07:02.009Z,445.25
2022-09-15T10:09:56.005Z,449.35
2022-09-15T10:12:43.943Z,419.02
2022-09-15T10:15:36.318Z,408.10
2022-09-15T10:18:29.800Z,431.27
2022-09-15T10:21:23.404Z,446.80
2022-09-15T10:24:35.283Z,431.00
2022-09-15T10:27:31.971Z,445.65
2022-09-15T10:30:20.642Z,418.73
2022-09-15T10:33:24.073Z,452.42
2022-09-15T10:36:15.712Z,454.35
2022-09-15T10:39:13.076Z,448.73
2022-09-15T10:42:11.972Z,458.50
2022-09-15T10:45:16.350Z,458.60
2022-09-15T10:48:20.798Z,451.65
2022-09-15T10:51:24.039Z,446.33
2022-09-15T10:54:34.084Z,448.95
2022-09-15T10:57:38.550Z,422.63
2022-09-15T11:00:31.167Z,449.70
2022-09-15T11:03:38.627Z,445.42
2022-09-15T11:06:31.131Z,420.45
2022-09-15T11:09:23.129Z,424.60
2022-09-15T11:12:28.929Z,427.30
2022-09-15T11:15:33.553Z,430.73
2022-09-15T11:18:45.625Z,423.17
2022-09-15T11:21:40.193Z,420.92
2022-09-15T11:24:37.572Z,431.52
2022-09-15T11:27:30.918Z,406.73
2022-09-15T11:30:21.202Z,394.63
2022-09-15T11:33:17.578Z,418.55
2022-09-15T11:36:10.520Z,413.20
2022-09-15T11:39:06.845Z,423.13
2022-09-15T11:42:00.983Z,376.63
2022-09-15T11:44:49.345Z,402.70
2022-09-15T11:47:43.515Z,388.83
2022-09-15T11:50:35.154Z,353.27
2022-09-15T11:53:29.802Z,316.35
2022-09-15T11:56:25.491Z,322.88
2022-09-15T11:59:21.841Z,317.27
2022-09-15T12:02:20.086Z,328.58
2022-09-15T12:05:15.006Z,333.42
2022-09-15T12:08:07.825Z,335.50
2022-09-15T12:11:00.110Z,330.85
2022-09-15T12:13:50.054Z,333.75
2022-09-15T12:16:38.156Z,303.45
2022-09-15T12:19:43.442Z,317.25
2022-09-15T12:22:41.021Z,306.55
2022-09-15T12:25:34.592Z,326.33
2022-09-15T12:28:43.619Z,306.33
2022-09-15T12:31:35.588Z,285.50
2022-09-15T12:34:38.390Z,303.80
2022-09-15T12:37:27.399Z,311.25
2022-09-15T12:40:35.643Z,306.98
2022-09-15T12:43:25.569Z,305.77
2022-09-15T12:46:19.426Z,282.65
2022-09-15T12:49:18.518Z,316.27
2022-09-15T12:52:08.340Z,311.95
2022-09-15T12:55:00.812Z,331.35
2022-09-15T12:57:57.392Z,318.55
2022-09-15T13:01:13.924Z,329.80
2022-09-15T13:04:26.323Z,311.42
2022-09-15T13:07:32.008Z,324.27
2022-09-15T13:10:39.407Z,338.10
2022-09-15T13:13:34.779Z,318.15
2022-09-15T13:16:30.990Z,327.42
2022-09-15T13:19:24.483Z,319.20
2022-09-15T13:22:22.504Z,327.30
2022-09-15T13:25:17.534Z,309.00
2022-09-15T13:28:06.230Z,301.25
2022-09-15T13:31:05.864Z,315.83
2022-09-15T13:38:20.082Z,301.90
2022-09-15T13:41:53.416Z,290.95
2022-09-15T13:45:14.049Z,279.35
2022-09-15T13:48:40.109Z,247.77
2022-09-15T13:51:30.935Z,264.35
2022-09-15T13:54:20.588Z,275.02
2022-09-15T13:57:09.043Z,279.45
2022-09-15T13:59:57.027Z,256.90
2022-09-15T14:05:40.931Z,249.30
2022-09-15T14:08:33.345Z,236.82
2022-09-15T14:11:29.269Z,233.77
2022-09-15T14:14:36.849Z,224.25
2022-09-15T14:17:26.655Z,215.70
2022-09-15T14:20:24.198Z,215.23
2022-09-15T14:23:16.735Z,229.32
2022-09-15T14:26:05.038Z,223.48
2022-09-15T14:28:58.437Z,239.48
2022-09-15T14:31:46.734Z,214.43
2022-09-15T14:34:37.248Z,223.90
2022-09-15T14:37:27.540Z,200.55
2022-09-15T14:40:21.040Z,213.95
2022-09-15T14:43:24.824Z,225.98
2022-09-15T14:46:17.417Z,211.93
2022-09-15T14:49:12.102Z,228.85
2022-09-15T14:52:02.225Z,212.05
2022-09-15T14:54:51.631Z,232.25
2022-09-15T15:00:45.514Z,211.27
2022-09-15T15:03:40.222Z,220.70
2022-09-15T15:06:35.671Z,197.68
2022-09-15T15:09:29.836Z,219.50
2022-09-15T15:12:25.233Z,203.48
2022-09-15T15:15:14.730Z,220.48
2022-09-15T15:18:07.341Z,209.77
2022-09-15T15:20:56.595Z,220.50
2022-09-15T15:23:47.089Z,225.70
2022-09-15T15:26:43.529Z,223.32
2022-09-15T15:29:43.996Z,207.07
2022-09-15T15:32:32.377Z,223.82
2022-09-15T15:35:21.398Z,212.98
2022-09-15T15:38:16.725Z,228.30
2022-09-15T15:41:06.778Z,216.43
2022-09-15T15:43:59.714Z,215.50
2022-09-15T15:46:50.624Z,220.88
2022-09-15T15:49:46.245Z,233.32
2022-09-15T15:52:38.972Z,223.55
2022-09-15T15:55:37.097Z,213.25
2022-09-15T15:58:25.247Z,219.02
2022-09-15T16:01:13.240Z,234.25
2022-09-15T16:04:01.211Z,228.32
2022-09-15T16:06:49.292Z,215.95
2022-09-15T16:09:37.632Z,227.05
2022-09-15T16:12:29.635Z,234.50
2022-09-15T16:15:21.965Z,219.75
2022-09-15T16:18:10.176Z,246.07
2022-09-15T16:20:58.099Z,217.45
2022-09-15T16:23:46.570Z,229.98
2022-09-15T16:26:35.559Z,217.13
2022-09-15T16:29:29.059Z,248.80
2022-09-15T16:32:19.691Z,230.90
2022-09-15T16:35:29.424Z,258.23
2022-09-15T16:38:19.525Z,239.57
2022-09-15T16:41:14.226Z,234.85
2022-09-15T16:44:02.531Z,236.25
2022-09-15T16:46:51.833Z,253.85
2022-09-15T16:49:39.800Z,250.40
2022-09-15T16:52:27.685Z,238.40
2022-09-15T16:55:23.102Z,234.57
2022-09-15T16:58:11.118Z,236.30
2022-09-15T17:00:59.313Z,250.23
2022-09-15T17:03:49.134Z,253.93
2022-09-15T17:06:37.069Z,240.80
2022-09-15T17:09:24.997Z,251.52
2022-09-15T17:15:01.733Z,291.33
2022-09-15T17:17:49.909Z,296.45
2022-09-15T17:20:39.545Z,325.52
2022-09-15T17:23:28.841Z,332.38
2022-09-15T17:26:19.917Z,330.33
2022-09-15T17:29:08.324Z,360.67
2022-09-15T17:31:56.196Z,343.42
2022-09-15T17:34:44.099Z,342.48
2022-09-15T17:37:33.532Z,377.33
2022-09-15T17:40:22.081Z,376.27
2022-09-15T17:43:14.960Z,369.75
2022-09-15T17:46:02.861Z,390.90
2022-09-15T17:48:50.854Z,377.77
2022-09-15T17:51:38.738Z,379.50
2022-09-15T17:54:27.973Z,415.63
2022-09-15T17:57:15.877Z,432.52
2022-09-15T18:00:03.976Z,425.08
2022-09-15T18:02:55.085Z,438.63
2022-09-15T18:05:43.185Z,414.15
2022-09-15T18:08:32.697Z,451.70
2022-09-15T18:11:22.060Z,450.08
2022-09-15T18:14:10.329Z,435.80
2022-09-15T18:16:58.253Z,447.63
2022-09-15T18:19:46.246Z,423.13
2022-09-15T18:22:34.270Z,441.88
2022-09-15T18:25:25.410Z,434.55
2022-09-15T18:28:15.279Z,408.38
2022-09-15T18:31:03.260Z,415.75
2022-09-15T18:33:51.201Z,420.45
2022-09-15T18:36:40.341Z,425.75
2022-09-15T18:39:29.322Z,435.83
2022-09-15T18:42:17.243Z,430.48
2022-09-15T18:45:09.284Z,429.90
2022-09-15T18:47:57.205Z,457.95
2022-09-15T18:50:45.812Z,445.08
2022-09-15T18:53:36.017Z,443.35
2022-09-15T18:56:24.002Z,452.17
2022-09-15T18:59:13.701Z,474.27
2022-09-15T19:02:06.355Z,435.70
2022-09-15T19:04:54.589Z,454.38
2022-09-15T19:07:43.329Z,432.73
2022-09-15T19:10:31.236Z,472.08
2022-09-15T19:13:19.149Z,449.27
2022-09-15T19:16:08.429Z,439.92
2022-09-15T19:18:57.828Z,446.58
2022-09-15T19:21:45.709Z,465.45
2022-09-15T19:24:35.255Z,460.88
2022-09-15T19:27:23.501Z,450.20
2022-09-15T19:30:12.543Z,438.60
2022-09-15T19:33:00.476Z,462.98
2022-09-15T19:35:59.922Z,431.13
2022-09-15T19:38:53.075Z,413.92
2022-09-15T19:41:41.467Z,433.70
2022-09-15T19:44:29.379Z,419.52
2022-09-15T19:47:17.407Z,441.92
2022-09-15T19:50:07.917Z,412.77
2022-09-15T19:52:59.547Z,427.63
2022-09-15T19:55:50.802Z,437.02
2022-09-15T19:58:38.737Z,425.67
2022-09-15T20:01:29.173Z,427.70
2022-09-15T20:04:18.088Z,433.38
2022-09-15T20:07:06.001Z,425.42
2022-09-15T20:09:55.236Z,457.38
2022-09-15T20:12:43.202Z,445.10
2022-09-15T20:15:31.102Z,427.08
2022-09-15T20:18:19.570Z,422.15
2022-09-15T20:21:08.623Z,438.83
2022-09-15T20:23:57.354Z,437.48
2022-09-15T20:26:46.774Z,424.17
2022-09-15T20:29:35.369Z,439.20
2022-09-15T20:32:28.163Z,454.90
2022-09-15T20:35:17.130Z,425.65
2022-09-15T20:38:05.022Z,409.30
2022-09-15T20:40:54.906Z,453.05
2022-09-15T20:43:44.898Z,396.23
2022-09-15T20:46:33.411Z,437.65
2022-09-15T20:49:21.371Z,420.05
2022-09-15T20:52:09.324Z,436.70
2022-09-15T20:54:57.378Z,424.98
2022-09-15T20:57:45.321Z,421.20
2022-09-15T21:00:34.600Z,423.45
2022-09-15T21:03:23.881Z,434.27
2022-09-15T21:06:14.444Z,410.45
2022-09-15T21:09:02.692Z,451.95
2022-09-15T21:11:53.512Z,417.52
2022-09-15T21:14:41.672Z,429.45
2022-09-15T21:17:30.890Z,438.88
2022-09-15T21:20:18.892Z,420.35
2022-09-15T21:23:07.217Z,436.23
2022-09-15T21:26:01.998Z,401.52
2022-09-15T21:28:50.858Z,422.63
2022-09-15T21:31:39.250Z,427.27
2022-09-15T21:34:28.912Z,410.75
2022-09-15T21:37:16.873Z,404.55
2022-09-15T21:40:05.258Z,414.80
2022-09-15T21:42:53.175Z,411.63
2022-09-15T21:45:41.165Z,403.77
2022-09-15T21:48:29.111Z,405.98
2022-09-15T21:51:24.251Z,422.48
2022-09-15T21:54:13.615Z,393.30
2022-09-15T21:57:01.621Z,409.52
2022-09-15T21:59:49.492Z,428.98
2022-09-15T22:02:37.414Z,414.60
2022-09-15T22:05:25.750Z,401.90
2022-09-15T22:08:16.609Z,419.00
2022-09-15T22:11:05.005Z,444.67
2022-09-15T22:13:53.123Z,416.17
2022-09-15T22:16:42.642Z,419.20
2022-09-15T22:19:30.688Z,423.42
2022-09-15T22:22:18.634Z,401.83
2022-09-15T22:25:08.878Z,426.25
2022-09-15T22:27:56.916Z,388.85
2022-09-15T22:30:44.815Z,392.00
2022-09-15T22:33:32.786Z,396.52
2022-09-15T22:36:26.589Z,402.13
2022-09-15T22:39:16.728Z,392.63
2022-09-15T22:42:06.294Z,389.05
2022-09-15T22:44:54.367Z,399.77
2022-09-15T22:47:42.288Z,400.02
2022-09-15T22:50:30.343Z,402.17
2022-09-15T22:53:18.277Z,408.65
2022-09-15T22:56:09.075Z,396.77
2022-09-15T22:58:58.377Z,384.40
2022-09-15T23:01:46.850Z,412.38
2022-09-15T23:04:34.820Z,396.67
2022-09-15T23:07:22.793Z,413.17
2022-09-15T23:10:10.826Z,385.65
2022-09-15T23:12:59.141Z,383.75
2022-09-15T23:15:50.051Z,389.85
2022-09-15T23:18:38.329Z,378.30
2022-09-15T23:21:27.946Z,397.25
2022-09-15T23:24:17.017Z,366.73
2022-09-15T23:27:05.194Z,373.90
2022-09-15T23:29:53.117Z,363.65
2022-09-15T23:32:42.429Z,383.67
2022-09-15T23:35:30.416Z,384.33
2022-09-15T23:38:19.572Z,386.77
2022-09-15T23:41:08.147Z,364.63
2022-09-15T23:43:56.905Z,390.38
2022-09-15T23:46:44.934Z,384.58
2022-09-15T23:49:34.248Z,390.83
2022-09-15T23:52:22.202Z,392.88
2022-09-15T23:55:10.492Z,374.13
2022-09-15T23:57:58.463Z,407.25
